sensor_id;sensor_type;location;lat;lon;timestamp;temperature;humidity
11700;DHT22;5906;51.660;6.674;2024-01-06T00:02:15;7.40;90.40
11700;DHT22;5906;51.660;6.674;2024-01-06T00:04:43;7.50;90.20
11700;DHT22;5906;51.660;6.674;2024-01-06T00:07:10;7.40;90.40
11700;DHT22;5906;51.660;6.674;2024-01-06T00:09:37;7.40;91.00
11700;DHT22;5906;51.660;6.674;2024-01-06T00:12:04;7.50;91.10
11700;DHT22;5906;51.660;6.674;2024-01-06T00:14:32;7.50;90.70
11700;DHT22;5906;51.660;6.674;2024-01-06T00:16:58;7.50;90.90
11700;DHT22;5906;51.660;6.674;2024-01-06T00:19:26;7.40;90.60
11700;DHT22;5906;51.660;6.674;2024-01-06T00:21:53;7.50;90.50
11700;DHT22;5906;51.660;6.674;2024-01-06T00:24:20;7.40;91.00
11700;DHT22;5906;51.660;6.674;2024-01-06T00:26:48;7.50;91.00
11700;DHT22;5906;51.660;6.674;2024-01-06T00:29:16;7.40;90.40
11700;DHT22;5906;51.660;6.674;2024-01-06T00:31:43;7.50;90.50
11700;DHT22;5906;51.660;6.674;2024-01-06T00:34:10;7.50;90.60
11700;DHT22;5906;51.660;6.674;2024-01-06T00:36:38;7.40;89.80
11700;DHT22;5906;51.660;6.674;2024-01-06T00:39:04;7.40;89.90
11700;DHT22;5906;51.660;6.674;2024-01-06T00:41:32;7.40;89.80
11700;DHT22;5906;51.660;6.674;2024-01-06T00:44:02;7.30;89.90
11700;DHT22;5906;51.660;6.674;2024-01-06T00:46:29;7.40;89.90
11700;DHT22;5906;51.660;6.674;2024-01-06T00:48:58;7.40;90.20
11700;DHT22;5906;51.660;6.674;2024-01-06T00:51:26;7.30;89.80
11700;DHT22;5906;51.660;6.674;2024-01-06T00:53:55;7.30;90.00
11700;DHT22;5906;51.660;6.674;2024-01-06T00:56:24;7.30;90.50
11700;DHT22;5906;51.660;6.674;2024-01-06T00:58:59;7.30;90.70
11700;DHT22;5906;51.660;6.674;2024-01-06T01:01:27;7.60;88.90
11700;DHT22;5906;51.660;6.674;2024-01-06T01:03:54;7.60;89.10
11700;DHT22;5906;51.660;6.674;2024-01-06T01:06:21;7.70;88.60
11700;DHT22;5906;51.660;6.674;2024-01-06T01:08:50;7.70;88.90
11700;DHT22;5906;51.660;6.674;2024-01-06T01:11:17;7.60;89.50
11700;DHT22;5906;51.660;6.674;2024-01-06T01:13:45;7.60;88.60
11700;DHT22;5906;51.660;6.674;2024-01-06T01:16:12;7.70;88.90
11700;DHT22;5906;51.660;6.674;2024-01-06T01:18:40;7.60;88.60
11700;DHT22;5906;51.660;6.674;2024-01-06T01:21:07;7.60;88.90
11700;DHT22;5906;51.660;6.674;2024-01-06T01:23:34;7.60;87.80
11700;DHT22;5906;51.660;6.674;2024-01-06T01:26:02;7.40;87.30
11700;DHT22;5906;51.660;6.674;2024-01-06T01:28:28;7.50;87.10
11700;DHT22;5906;51.660;6.674;2024-01-06T01:30:55;7.30;86.60
11700;DHT22;5906;51.660;6.674;2024-01-06T01:33:22;7.20;86.80
11700;DHT22;5906;51.660;6.674;2024-01-06T01:35:50;7.10;87.60
11700;DHT22;5906;51.660;6.674;2024-01-06T01:38:16;7.00;87.70
11700;DHT22;5906;51.660;6.674;2024-01-06T01:40:43;7.00;87.60
11700;DHT22;5906;51.660;6.674;2024-01-06T01:43:20;7.00;86.70
11700;DHT22;5906;51.660;6.674;2024-01-06T01:45:50;6.90;86.30
11700;DHT22;5906;51.660;6.674;2024-01-06T01:48:20;6.90;86.50
11700;DHT22;5906;51.660;6.674;2024-01-06T01:50:48;6.90;86.20
11700;DHT22;5906;51.660;6.674;2024-01-06T01:53:16;6.90;86.50
11700;DHT22;5906;51.660;6.674;2024-01-06T01:55:44;6.80;85.30
11700;DHT22;5906;51.660;6.674;2024-01-06T01:58:12;6.80;84.20
11700;DHT22;5906;51.660;6.674;2024-01-06T02:00:40;6.80;84.00
11700;DHT22;5906;51.660;6.674;2024-01-06T02:03:07;6.70;83.80
11700;DHT22;5906;51.660;6.674;2024-01-06T02:05:36;6.60;83.80
11700;DHT22;5906;51.660;6.674;2024-01-06T02:08:03;6.50;83.30
11700;DHT22;5906;51.660;6.674;2024-01-06T02:10:30;6.40;83.90
11700;DHT22;5906;51.660;6.674;2024-01-06T02:12:57;6.40;84.10
11700;DHT22;5906;51.660;6.674;2024-01-06T02:15:33;6.40;84.60
11700;DHT22;5906;51.660;6.674;2024-01-06T02:18:01;6.40;84.20
11700;DHT22;5906;51.660;6.674;2024-01-06T02:20:30;6.40;83.60
11700;DHT22;5906;51.660;6.674;2024-01-06T02:22:57;6.40;84.00
11700;DHT22;5906;51.660;6.674;2024-01-06T02:25:26;6.40;84.30
11700;DHT22;5906;51.660;6.674;2024-01-06T02:27:53;6.40;83.70
11700;DHT22;5906;51.660;6.674;2024-01-06T02:30:20;6.30;83.30
11700;DHT22;5906;51.660;6.674;2024-01-06T02:32:47;6.30;83.30
11700;DHT22;5906;51.660;6.674;2024-01-06T02:35:14;6.20;82.60
11700;DHT22;5906;51.660;6.674;2024-01-06T02:37:41;6.20;83.10
11700;DHT22;5906;51.660;6.674;2024-01-06T02:40:09;6.20;83.10
11700;DHT22;5906;51.660;6.674;2024-01-06T02:42:36;6.10;83.20
11700;DHT22;5906;51.660;6.674;2024-01-06T02:45:03;6.10;83.20
11700;DHT22;5906;51.660;6.674;2024-01-06T02:47:30;6.10;83.70
11700;DHT22;5906;51.660;6.674;2024-01-06T02:49:57;6.00;83.40
11700;DHT22;5906;51.660;6.674;2024-01-06T02:52:24;6.10;83.00
11700;DHT22;5906;51.660;6.674;2024-01-06T02:54:51;6.20;82.80
11700;DHT22;5906;51.660;6.674;2024-01-06T02:57:18;6.10;82.40
11700;DHT22;5906;51.660;6.674;2024-01-06T02:59:45;6.10;82.70
11700;DHT22;5906;51.660;6.674;2024-01-06T03:02:12;6.10;82.90
11700;DHT22;5906;51.660;6.674;2024-01-06T03:04:39;6.10;82.90
11700;DHT22;5906;51.660;6.674;2024-01-06T03:07:06;6.10;83.30
11700;DHT22;5906;51.660;6.674;2024-01-06T03:09:33;6.10;82.90
11700;DHT22;5906;51.660;6.674;2024-01-06T03:12:00;6.10;82.70
11700;DHT22;5906;51.660;6.674;2024-01-06T03:14:27;6.10;82.70
11700;DHT22;5906;51.660;6.674;2024-01-06T03:16:53;6.10;82.80
11700;DHT22;5906;51.660;6.674;2024-01-06T03:19:20;6.00;82.90
11700;DHT22;5906;51.660;6.674;2024-01-06T03:21:47;6.00;83.30
11700;DHT22;5906;51.660;6.674;2024-01-06T03:24:14;6.10;83.50
11700;DHT22;5906;51.660;6.674;2024-01-06T03:26:41;6.10;82.40
11700;DHT22;5906;51.660;6.674;2024-01-06T03:29:08;6.10;82.00
11700;DHT22;5906;51.660;6.674;2024-01-06T03:31:35;6.00;82.60
11700;DHT22;5906;51.660;6.674;2024-01-06T03:34:02;6.00;82.80
11700;DHT22;5906;51.660;6.674;2024-01-06T03:36:29;5.90;82.90
11700;DHT22;5906;51.660;6.674;2024-01-06T03:38:56;5.80;83.00
11700;DHT22;5906;51.660;6.674;2024-01-06T03:41:23;5.90;83.50
11700;DHT22;5906;51.660;6.674;2024-01-06T03:43:50;5.90;83.30
11700;DHT22;5906;51.660;6.674;2024-01-06T03:46:16;5.90;83.40
11700;DHT22;5906;51.660;6.674;2024-01-06T03:48:43;5.90;83.20
11700;DHT22;5906;51.660;6.674;2024-01-06T03:51:12;5.90;83.30
11700;DHT22;5906;51.660;6.674;2024-01-06T03:53:39;5.90;83.20
11700;DHT22;5906;51.660;6.674;2024-01-06T03:56:07;5.90;83.60
11700;DHT22;5906;51.660;6.674;2024-01-06T03:58:34;5.90;83.50
11700;DHT22;5906;51.660;6.674;2024-01-06T04:01:01;5.90;83.10
11700;DHT22;5906;51.660;6.674;2024-01-06T04:03:28;5.90;83.40
11700;DHT22;5906;51.660;6.674;2024-01-06T04:05:55;5.80;84.10
11700;DHT22;5906;51.660;6.674;2024-01-06T04:08:22;5.80;84.10
11700;DHT22;5906;51.660;6.674;2024-01-06T04:10:49;5.80;84.50
11700;DHT22;5906;51.660;6.674;2024-01-06T04:13:16;5.80;84.60
11700;DHT22;5906;51.660;6.674;2024-01-06T04:15:42;5.80;84.60
11700;DHT22;5906;51.660;6.674;2024-01-06T04:18:09;5.80;84.70
11700;DHT22;5906;51.660;6.674;2024-01-06T04:20:37;5.90;84.50
11700;DHT22;5906;51.660;6.674;2024-01-06T04:23:04;5.80;84.60
11700;DHT22;5906;51.660;6.674;2024-01-06T04:25:31;5.80;84.80
11700;DHT22;5906;51.660;6.674;2024-01-06T04:27:58;5.80;85.00
11700;DHT22;5906;51.660;6.674;2024-01-06T04:30:25;5.80;85.20
11700;DHT22;5906;51.660;6.674;2024-01-06T04:32:53;5.80;84.90
11700;DHT22;5906;51.660;6.674;2024-01-06T04:35:20;5.80;85.00
11700;DHT22;5906;51.660;6.674;2024-01-06T04:37:48;5.80;85.90
11700;DHT22;5906;51.660;6.674;2024-01-06T04:40:16;5.80;86.00
11700;DHT22;5906;51.660;6.674;2024-01-06T04:42:43;5.80;86.20
11700;DHT22;5906;51.660;6.674;2024-01-06T04:45:11;5.80;86.10
11700;DHT22;5906;51.660;6.674;2024-01-06T04:47:39;5.70;86.50
11700;DHT22;5906;51.660;6.674;2024-01-06T04:50:07;5.70;86.90
11700;DHT22;5906;51.660;6.674;2024-01-06T04:52:34;5.70;86.70
11700;DHT22;5906;51.660;6.674;2024-01-06T04:55:01;5.70;86.90
11700;DHT22;5906;51.660;6.674;2024-01-06T04:57:28;5.70;87.20
11700;DHT22;5906;51.660;6.674;2024-01-06T04:59:55;5.70;86.60
11700;DHT22;5906;51.660;6.674;2024-01-06T05:02:22;5.60;87.10
11700;DHT22;5906;51.660;6.674;2024-01-06T05:04:49;5.60;87.80
11700;DHT22;5906;51.660;6.674;2024-01-06T05:07:16;5.60;88.30
11700;DHT22;5906;51.660;6.674;2024-01-06T05:09:43;5.60;87.60
11700;DHT22;5906;51.660;6.674;2024-01-06T05:12:09;5.70;87.50
11700;DHT22;5906;51.660;6.674;2024-01-06T05:14:36;5.60;87.30
11700;DHT22;5906;51.660;6.674;2024-01-06T05:17:04;5.70;87.20
11700;DHT22;5906;51.660;6.674;2024-01-06T05:19:31;5.70;87.10
11700;DHT22;5906;51.660;6.674;2024-01-06T05:21:58;5.70;87.30
11700;DHT22;5906;51.660;6.674;2024-01-06T05:24:25;5.70;87.20
11700;DHT22;5906;51.660;6.674;2024-01-06T05:26:52;5.80;86.80
11700;DHT22;5906;51.660;6.674;2024-01-06T05:29:18;5.70;86.80
11700;DHT22;5906;51.660;6.674;2024-01-06T05:31:45;5.70;86.50
11700;DHT22;5906;51.660;6.674;2024-01-06T05:34:15;5.60;86.20
11700;DHT22;5906;51.660;6.674;2024-01-06T05:36:42;5.50;86.80
11700;DHT22;5906;51.660;6.674;2024-01-06T05:39:09;5.40;87.10
11700;DHT22;5906;51.660;6.674;2024-01-06T05:41:39;5.40;87.20
11700;DHT22;5906;51.660;6.674;2024-01-06T05:44:06;5.40;87.10
11700;DHT22;5906;51.660;6.674;2024-01-06T05:46:34;5.30;87.50
11700;DHT22;5906;51.660;6.674;2024-01-06T05:49:01;5.20;88.30
11700;DHT22;5906;51.660;6.674;2024-01-06T05:51:28;5.30;88.80
11700;DHT22;5906;51.660;6.674;2024-01-06T05:53:55;5.40;88.30
11700;DHT22;5906;51.660;6.674;2024-01-06T05:56:26;5.40;87.60
11700;DHT22;5906;51.660;6.674;2024-01-06T05:58:53;5.40;87.20
11700;DHT22;5906;51.660;6.674;2024-01-06T06:01:20;5.40;86.50
11700;DHT22;5906;51.660;6.674;2024-01-06T06:03:50;5.30;86.70
11700;DHT22;5906;51.660;6.674;2024-01-06T06:06:18;5.20;87.10
11700;DHT22;5906;51.660;6.674;2024-01-06T06:08:45;5.20;87.30
11700;DHT22;5906;51.660;6.674;2024-01-06T06:11:12;5.20;87.20
11700;DHT22;5906;51.660;6.674;2024-01-06T06:13:42;5.20;87.80
11700;DHT22;5906;51.660;6.674;2024-01-06T06:16:10;5.20;87.80
11700;DHT22;5906;51.660;6.674;2024-01-06T06:18:39;5.10;87.50
11700;DHT22;5906;51.660;6.674;2024-01-06T06:21:07;5.10;87.50
11700;DHT22;5906;51.660;6.674;2024-01-06T06:23:35;5.10;87.60
11700;DHT22;5906;51.660;6.674;2024-01-06T06:26:06;5.10;87.40
11700;DHT22;5906;51.660;6.674;2024-01-06T06:28:34;5.00;87.70
11700;DHT22;5906;51.660;6.674;2024-01-06T06:31:01;5.00;87.60
11700;DHT22;5906;51.660;6.674;2024-01-06T06:33:29;5.00;87.40
11700;DHT22;5906;51.660;6.674;2024-01-06T06:35:56;5.00;87.10
11700;DHT22;5906;51.660;6.674;2024-01-06T06:38:25;5.00;86.80
11700;DHT22;5906;51.660;6.674;2024-01-06T06:40:53;5.00;87.00
11700;DHT22;5906;51.660;6.674;2024-01-06T06:43:19;5.00;86.50
11700;DHT22;5906;51.660;6.674;2024-01-06T06:45:46;4.90;86.80
11700;DHT22;5906;51.660;6.674;2024-01-06T06:48:13;4.80;86.80
11700;DHT22;5906;51.660;6.674;2024-01-06T06:50:40;4.70;86.90
11700;DHT22;5906;51.660;6.674;2024-01-06T06:53:08;4.70;87.10
11700;DHT22;5906;51.660;6.674;2024-01-06T06:55:35;4.70;87.40
11700;DHT22;5906;51.660;6.674;2024-01-06T06:58:04;4.60;87.60
11700;DHT22;5906;51.660;6.674;2024-01-06T07:00:32;4.60;87.70
11700;DHT22;5906;51.660;6.674;2024-01-06T07:03:00;4.60;87.90
11700;DHT22;5906;51.660;6.674;2024-01-06T07:05:27;4.70;88.20
11700;DHT22;5906;51.660;6.674;2024-01-06T07:07:54;4.70;87.00
11700;DHT22;5906;51.660;6.674;2024-01-06T07:10:22;4.80;86.90
11700;DHT22;5906;51.660;6.674;2024-01-06T07:12:49;4.80;86.80
11700;DHT22;5906;51.660;6.674;2024-01-06T07:15:16;4.80;87.30
11700;DHT22;5906;51.660;6.674;2024-01-06T07:17:43;4.80;87.10
11700;DHT22;5906;51.660;6.674;2024-01-06T07:20:10;4.80;87.90
11700;DHT22;5906;51.660;6.674;2024-01-06T07:22:37;4.80;87.30
11700;DHT22;5906;51.660;6.674;2024-01-06T07:25:04;4.80;86.60
11700;DHT22;5906;51.660;6.674;2024-01-06T07:27:32;4.70;85.70
11700;DHT22;5906;51.660;6.674;2024-01-06T07:29:59;4.70;86.60
11700;DHT22;5906;51.660;6.674;2024-01-06T07:32:26;4.80;87.10
11700;DHT22;5906;51.660;6.674;2024-01-06T07:34:53;4.80;86.50
11700;DHT22;5906;51.660;6.674;2024-01-06T07:37:20;4.80;86.60
11700;DHT22;5906;51.660;6.674;2024-01-06T07:39:47;4.70;85.70
11700;DHT22;5906;51.660;6.674;2024-01-06T07:42:14;4.60;85.70
11700;DHT22;5906;51.660;6.674;2024-01-06T07:44:41;4.40;86.40
11700;DHT22;5906;51.660;6.674;2024-01-06T07:47:08;4.30;87.10
11700;DHT22;5906;51.660;6.674;2024-01-06T07:49:35;4.20;87.80
11700;DHT22;5906;51.660;6.674;2024-01-06T07:52:02;4.10;88.20
11700;DHT22;5906;51.660;6.674;2024-01-06T07:54:29;4.10;89.00
11700;DHT22;5906;51.660;6.674;2024-01-06T07:56:56;4.10;89.20
11700;DHT22;5906;51.660;6.674;2024-01-06T07:59:23;4.10;89.40
11700;DHT22;5906;51.660;6.674;2024-01-06T08:01:50;4.10;89.50
11700;DHT22;5906;51.660;6.674;2024-01-06T08:04:17;4.00;89.90
11700;DHT22;5906;51.660;6.674;2024-01-06T08:06:44;4.10;90.00
11700;DHT22;5906;51.660;6.674;2024-01-06T08:09:11;4.00;90.10
11700;DHT22;5906;51.660;6.674;2024-01-06T08:11:38;4.00;90.60
11700;DHT22;5906;51.660;6.674;2024-01-06T08:14:05;4.00;91.00
11700;DHT22;5906;51.660;6.674;2024-01-06T08:16:32;4.00;90.90
11700;DHT22;5906;51.660;6.674;2024-01-06T08:18:59;3.90;90.90
11700;DHT22;5906;51.660;6.674;2024-01-06T08:21:27;3.90;91.00
11700;DHT22;5906;51.660;6.674;2024-01-06T08:23:54;3.90;91.20
11700;DHT22;5906;51.660;6.674;2024-01-06T08:26:21;3.90;91.10
11700;DHT22;5906;51.660;6.674;2024-01-06T08:28:48;3.90;90.80
11700;DHT22;5906;51.660;6.674;2024-01-06T08:31:15;3.90;90.80
11700;DHT22;5906;51.660;6.674;2024-01-06T08:33:42;3.90;90.20
11700;DHT22;5906;51.660;6.674;2024-01-06T08:36:09;3.80;90.40
11700;DHT22;5906;51.660;6.674;2024-01-06T08:38:36;3.80;90.60
11700;DHT22;5906;51.660;6.674;2024-01-06T08:41:03;3.80;90.90
11700;DHT22;5906;51.660;6.674;2024-01-06T08:43:30;3.80;91.10
11700;DHT22;5906;51.660;6.674;2024-01-06T08:45:57;3.70;91.30
11700;DHT22;5906;51.660;6.674;2024-01-06T08:48:24;3.80;90.60
11700;DHT22;5906;51.660;6.674;2024-01-06T08:50:51;3.80;90.30
11700;DHT22;5906;51.660;6.674;2024-01-06T08:53:18;3.80;90.70
11700;DHT22;5906;51.660;6.674;2024-01-06T08:55:45;3.80;90.70
11700;DHT22;5906;51.660;6.674;2024-01-06T08:58:13;3.80;90.50
11700;DHT22;5906;51.660;6.674;2024-01-06T09:00:40;3.70;90.60
11700;DHT22;5906;51.660;6.674;2024-01-06T09:03:07;3.60;90.90
11700;DHT22;5906;51.660;6.674;2024-01-06T09:05:34;3.70;90.90
11700;DHT22;5906;51.660;6.674;2024-01-06T09:08:01;3.60;91.20
11700;DHT22;5906;51.660;6.674;2024-01-06T09:10:29;3.60;91.20
11700;DHT22;5906;51.660;6.674;2024-01-06T09:12:56;3.60;91.20
11700;DHT22;5906;51.660;6.674;2024-01-06T09:15:24;3.60;90.70
11700;DHT22;5906;51.660;6.674;2024-01-06T09:17:51;3.60;90.90
11700;DHT22;5906;51.660;6.674;2024-01-06T09:20:18;3.60;90.80
11700;DHT22;5906;51.660;6.674;2024-01-06T09:22:49;3.60;90.70
11700;DHT22;5906;51.660;6.674;2024-01-06T09:25:16;3.60;91.20
11700;DHT22;5906;51.660;6.674;2024-01-06T09:27:43;3.60;91.00
11700;DHT22;5906;51.660;6.674;2024-01-06T09:30:11;3.60;91.20
11700;DHT22;5906;51.660;6.674;2024-01-06T09:32:38;3.60;91.00
11700;DHT22;5906;51.660;6.674;2024-01-06T09:35:05;3.50;90.90
11700;DHT22;5906;51.660;6.674;2024-01-06T09:37:32;3.60;90.60
11700;DHT22;5906;51.660;6.674;2024-01-06T09:39:59;3.50;90.60
11700;DHT22;5906;51.660;6.674;2024-01-06T09:42:26;3.50;90.70
11700;DHT22;5906;51.660;6.674;2024-01-06T09:44:53;3.50;91.00
11700;DHT22;5906;51.660;6.674;2024-01-06T09:47:22;3.50;91.00
11700;DHT22;5906;51.660;6.674;2024-01-06T09:49:49;3.60;90.90
11700;DHT22;5906;51.660;6.674;2024-01-06T09:52:21;3.60;90.60
11700;DHT22;5906;51.660;6.674;2024-01-06T09:54:53;3.50;90.50
11700;DHT22;5906;51.660;6.674;2024-01-06T09:57:23;3.50;90.40
11700;DHT22;5906;51.660;6.674;2024-01-06T09:59:50;3.60;90.40
11700;DHT22;5906;51.660;6.674;2024-01-06T10:02:18;3.60;90.20
11700;DHT22;5906;51.660;6.674;2024-01-06T10:04:47;3.60;90.20
11700;DHT22;5906;51.660;6.674;2024-01-06T10:07:14;3.60;89.70
11700;DHT22;5906;51.660;6.674;2024-01-06T10:09:41;3.50;90.00
11700;DHT22;5906;51.660;6.674;2024-01-06T10:12:11;3.50;90.60
11700;DHT22;5906;51.660;6.674;2024-01-06T10:14:37;3.40;91.10
11700;DHT22;5906;51.660;6.674;2024-01-06T10:17:07;3.40;91.20
11700;DHT22;5906;51.660;6.674;2024-01-06T10:19:37;3.40;91.20
11700;DHT22;5906;51.660;6.674;2024-01-06T10:22:05;3.50;91.00
11700;DHT22;5906;51.660;6.674;2024-01-06T10:24:32;3.50;90.90
11700;DHT22;5906;51.660;6.674;2024-01-06T10:26:59;3.40;90.60
11700;DHT22;5906;51.660;6.674;2024-01-06T10:29:26;3.40;90.80
11700;DHT22;5906;51.660;6.674;2024-01-06T10:32:00;3.40;91.00
11700;DHT22;5906;51.660;6.674;2024-01-06T10:34:55;3.50;90.40
11700;DHT22;5906;51.660;6.674;2024-01-06T10:37:42;3.50;90.40
11700;DHT22;5906;51.660;6.674;2024-01-06T10:40:11;3.40;90.60
11700;DHT22;5906;51.660;6.674;2024-01-06T10:42:40;3.40;90.50
11700;DHT22;5906;51.660;6.674;2024-01-06T10:45:11;3.40;91.00
11700;DHT22;5906;51.660;6.674;2024-01-06T10:47:40;3.40;90.50
11700;DHT22;5906;51.660;6.674;2024-01-06T10:50:09;3.30;90.30
11700;DHT22;5906;51.660;6.674;2024-01-06T10:52:39;3.40;90.40
11700;DHT22;5906;51.660;6.674;2024-01-06T10:55:07;3.40;90.40
11700;DHT22;5906;51.660;6.674;2024-01-06T10:57:37;3.30;90.50
11700;DHT22;5906;51.660;6.674;2024-01-06T11:03:44;3.30;90.70
11700;DHT22;5906;51.660;6.674;2024-01-06T11:06:21;3.30;91.10
11700;DHT22;5906;51.660;6.674;2024-01-06T11:09:19;3.40;90.80
11700;DHT22;5906;51.660;6.674;2024-01-06T11:12:08;3.40;91.10
11700;DHT22;5906;51.660;6.674;2024-01-06T11:14:45;3.30;91.20
11700;DHT22;5906;51.660;6.674;2024-01-06T11:17:58;3.30;91.30
11700;DHT22;5906;51.660;6.674;2024-01-06T11:24:26;3.40;90.40
11700;DHT22;5906;51.660;6.674;2024-01-06T11:27:02;3.50;90.50
11700;DHT22;5906;51.660;6.674;2024-01-06T11:29:30;3.40;90.40
11700;DHT22;5906;51.660;6.674;2024-01-06T11:32:19;3.40;90.70
11700;DHT22;5906;51.660;6.674;2024-01-06T11:34:51;3.40;90.60
11700;DHT22;5906;51.660;6.674;2024-01-06T11:37:24;3.30;90.60
11700;DHT22;5906;51.660;6.674;2024-01-06T11:39:52;3.30;90.60
11700;DHT22;5906;51.660;6.674;2024-01-06T11:42:20;3.30;90.00
11700;DHT22;5906;51.660;6.674;2024-01-06T11:44:50;3.20;90.10
11700;DHT22;5906;51.660;6.674;2024-01-06T11:47:18;3.20;90.30
11700;DHT22;5906;51.660;6.674;2024-01-06T11:49:54;3.10;90.40
11700;DHT22;5906;51.660;6.674;2024-01-06T11:52:21;3.10;90.40
11700;DHT22;5906;51.660;6.674;2024-01-06T11:54:49;3.10;90.30
11700;DHT22;5906;51.660;6.674;2024-01-06T11:57:16;3.10;89.90
11700;DHT22;5906;51.660;6.674;2024-01-06T11:59:44;3.10;90.00
11700;DHT22;5906;51.660;6.674;2024-01-06T12:02:12;3.10;90.30
11700;DHT22;5906;51.660;6.674;2024-01-06T12:04:40;3.20;89.80
11700;DHT22;5906;51.660;6.674;2024-01-06T12:07:09;3.20;89.60
11700;DHT22;5906;51.660;6.674;2024-01-06T12:09:36;3.20;89.50
11700;DHT22;5906;51.660;6.674;2024-01-06T12:12:06;3.20;89.10
11700;DHT22;5906;51.660;6.674;2024-01-06T12:14:34;3.20;89.30
11700;DHT22;5906;51.660;6.674;2024-01-06T12:17:01;3.10;88.60
11700;DHT22;5906;51.660;6.674;2024-01-06T12:19:32;3.10;89.10
11700;DHT22;5906;51.660;6.674;2024-01-06T12:22:04;3.10;89.50
11700;DHT22;5906;51.660;6.674;2024-01-06T12:24:32;3.00;89.50
11700;DHT22;5906;51.660;6.674;2024-01-06T12:26:59;3.00;89.40
11700;DHT22;5906;51.660;6.674;2024-01-06T12:29:27;3.00;89.50
11700;DHT22;5906;51.660;6.674;2024-01-06T12:31:59;3.00;89.70
11700;DHT22;5906;51.660;6.674;2024-01-06T12:34:27;2.90;89.70
11700;DHT22;5906;51.660;6.674;2024-01-06T12:36:54;2.90;89.80
11700;DHT22;5906;51.660;6.674;2024-01-06T12:39:28;2.90;90.00
11700;DHT22;5906;51.660;6.674;2024-01-06T12:41:56;2.90;89.80
11700;DHT22;5906;51.660;6.674;2024-01-06T12:44:23;2.80;89.80
11700;DHT22;5906;51.660;6.674;2024-01-06T12:46:50;2.90;89.90
11700;DHT22;5906;51.660;6.674;2024-01-06T12:49:17;2.90;90.10
11700;DHT22;5906;51.660;6.674;2024-01-06T12:51:44;2.90;89.90
11700;DHT22;5906;51.660;6.674;2024-01-06T12:54:11;2.90;90.50
11700;DHT22;5906;51.660;6.674;2024-01-06T12:56:38;2.90;90.60
11700;DHT22;5906;51.660;6.674;2024-01-06T12:59:04;2.90;89.90
11700;DHT22;5906;51.660;6.674;2024-01-06T13:01:32;2.80;90.20
11700;DHT22;5906;51.660;6.674;2024-01-06T13:03:59;2.80;89.90
11700;DHT22;5906;51.660;6.674;2024-01-06T13:06:28;2.70;90.20
11700;DHT22;5906;51.660;6.674;2024-01-06T13:08:55;2.70;90.20
11700;DHT22;5906;51.660;6.674;2024-01-06T13:11:22;2.70;90.20
11700;DHT22;5906;51.660;6.674;2024-01-06T13:13:49;2.70;90.50
11700;DHT22;5906;51.660;6.674;2024-01-06T13:16:16;2.70;90.10
11700;DHT22;5906;51.660;6.674;2024-01-06T13:18:43;2.60;89.70
11700;DHT22;5906;51.660;6.674;2024-01-06T13:21:11;2.60;90.00
11700;DHT22;5906;51.660;6.674;2024-01-06T13:23:39;2.60;90.40
11700;DHT22;5906;51.660;6.674;2024-01-06T13:26:05;2.60;90.30
11700;DHT22;5906;51.660;6.674;2024-01-06T13:28:33;2.60;90.20
11700;DHT22;5906;51.660;6.674;2024-01-06T13:31:00;2.70;89.90
11700;DHT22;5906;51.660;6.674;2024-01-06T13:33:27;2.70;89.70
11700;DHT22;5906;51.660;6.674;2024-01-06T13:35:55;2.60;88.90
11700;DHT22;5906;51.660;6.674;2024-01-06T13:38:22;2.60;89.40
11700;DHT22;5906;51.660;6.674;2024-01-06T13:40:49;2.60;89.40
11700;DHT22;5906;51.660;6.674;2024-01-06T13:43:16;2.60;89.50
11700;DHT22;5906;51.660;6.674;2024-01-06T13:45:43;2.70;89.40
11700;DHT22;5906;51.660;6.674;2024-01-06T13:48:14;2.60;89.00
11700;DHT22;5906;51.660;6.674;2024-01-06T13:50:41;2.60;89.20
11700;DHT22;5906;51.660;6.674;2024-01-06T13:53:08;2.70;89.60
11700;DHT22;5906;51.660;6.674;2024-01-06T13:55:35;2.60;89.30
11700;DHT22;5906;51.660;6.674;2024-01-06T13:58:02;2.60;89.10
11700;DHT22;5906;51.660;6.674;2024-01-06T14:00:30;2.60;89.10
11700;DHT22;5906;51.660;6.674;2024-01-06T14:02:57;2.60;89.30
11700;DHT22;5906;51.660;6.674;2024-01-06T14:05:24;2.60;89.30
11700;DHT22;5906;51.660;6.674;2024-01-06T14:07:51;2.70;88.80
11700;DHT22;5906;51.660;6.674;2024-01-06T14:10:19;2.70;88.50
11700;DHT22;5906;51.660;6.674;2024-01-06T14:12:47;2.70;88.20
11700;DHT22;5906;51.660;6.674;2024-01-06T14:15:14;2.60;87.60
11700;DHT22;5906;51.660;6.674;2024-01-06T14:17:41;2.70;87.60
11700;DHT22;5906;51.660;6.674;2024-01-06T14:20:10;2.70;87.30
11700;DHT22;5906;51.660;6.674;2024-01-06T14:22:39;2.60;87.60
11700;DHT22;5906;51.660;6.674;2024-01-06T14:25:06;2.60;87.60
11700;DHT22;5906;51.660;6.674;2024-01-06T14:27:34;2.60;87.90
11700;DHT22;5906;51.660;6.674;2024-01-06T14:30:01;2.60;87.60
11700;DHT22;5906;51.660;6.674;2024-01-06T14:32:29;2.60;87.70
11700;DHT22;5906;51.660;6.674;2024-01-06T14:34:57;2.60;88.10
11700;DHT22;5906;51.660;6.674;2024-01-06T14:37:24;2.50;88.20
11700;DHT22;5906;51.660;6.674;2024-01-06T14:39:52;2.60;88.10
11700;DHT22;5906;51.660;6.674;2024-01-06T14:42:19;2.60;87.90
11700;DHT22;5906;51.660;6.674;2024-01-06T14:44:46;2.50;87.80
11700;DHT22;5906;51.660;6.674;2024-01-06T14:47:13;2.50;87.50
11700;DHT22;5906;51.660;6.674;2024-01-06T14:49:46;2.50;87.80
11700;DHT22;5906;51.660;6.674;2024-01-06T14:52:15;2.50;87.80
11700;DHT22;5906;51.660;6.674;2024-01-06T14:54:42;2.50;88.10
11700;DHT22;5906;51.660;6.674;2024-01-06T14:57:09;2.50;87.80
11700;DHT22;5906;51.660;6.674;2024-01-06T14:59:35;2.50;87.50
11700;DHT22;5906;51.660;6.674;2024-01-06T15:02:04;2.50;87.30
11700;DHT22;5906;51.660;6.674;2024-01-06T15:04:31;2.50;87.20
11700;DHT22;5906;51.660;6.674;2024-01-06T15:06:58;2.50;87.10
11700;DHT22;5906;51.660;6.674;2024-01-06T15:09:26;2.50;87.00
11700;DHT22;5906;51.660;6.674;2024-01-06T15:11:54;2.50;87.40
11700;DHT22;5906;51.660;6.674;2024-01-06T15:14:21;2.40;87.00
11700;DHT22;5906;51.660;6.674;2024-01-06T15:16:48;2.40;87.50
11700;DHT22;5906;51.660;6.674;2024-01-06T15:19:15;2.40;87.50
11700;DHT22;5906;51.660;6.674;2024-01-06T15:21:42;2.40;87.50
11700;DHT22;5906;51.660;6.674;2024-01-06T15:24:09;2.40;87.50
11700;DHT22;5906;51.660;6.674;2024-01-06T15:26:36;2.40;87.80
11700;DHT22;5906;51.660;6.674;2024-01-06T15:29:03;2.40;88.00
11700;DHT22;5906;51.660;6.674;2024-01-06T15:31:32;2.50;88.30
11700;DHT22;5906;51.660;6.674;2024-01-06T15:34:01;2.40;87.90
11700;DHT22;5906;51.660;6.674;2024-01-06T15:36:29;2.50;87.70
11700;DHT22;5906;51.660;6.674;2024-01-06T15:38:55;2.40;87.80
11700;DHT22;5906;51.660;6.674;2024-01-06T15:41:23;2.40;87.70
11700;DHT22;5906;51.660;6.674;2024-01-06T15:43:50;2.50;90.30
11700;DHT22;5906;51.660;6.674;2024-01-06T15:46:17;2.60;90.00
11700;DHT22;5906;51.660;6.674;2024-01-06T15:48:44;2.70;89.70
11700;DHT22;5906;51.660;6.674;2024-01-06T15:51:11;2.80;89.50
11700;DHT22;5906;51.660;6.674;2024-01-06T15:53:38;2.90;89.20
11700;DHT22;5906;51.660;6.674;2024-01-06T15:56:05;2.90;87.60
11700;DHT22;5906;51.660;6.674;2024-01-06T15:58:32;3.00;88.00
11700;DHT22;5906;51.660;6.674;2024-01-06T16:00:59;3.00;88.70
11700;DHT22;5906;51.660;6.674;2024-01-06T16:03:26;3.00;88.10
11700;DHT22;5906;51.660;6.674;2024-01-06T16:05:53;3.00;88.00
11700;DHT22;5906;51.660;6.674;2024-01-06T16:08:21;2.90;88.40
11700;DHT22;5906;51.660;6.674;2024-01-06T16:10:48;3.10;88.10
11700;DHT22;5906;51.660;6.674;2024-01-06T16:13:15;3.10;87.40
11700;DHT22;5906;51.660;6.674;2024-01-06T16:15:42;3.00;87.80